createdAt,value
2019-05-09T00:04:34.066Z,99656.02
2019-05-09T00:09:36.474Z,99658.41
2019-05-09T00:14:38.624Z,99661.20
2019-05-09T00:19:40.535Z,99659.90
2019-05-09T00:24:45.658Z,99661.14
2019-05-09T00:29:49.149Z,99658.00
2019-05-09T00:34:58.004Z,99668.91
2019-05-09T00:40:00.423Z,99666.94
2019-05-09T00:45:07.098Z,99675.25
2019-05-09T00:50:09.007Z,99672.42
2019-05-09T00:55:13.123Z,99676.28
2019-05-09T01:00:16.352Z,99670.61
2019-05-09T01:05:18.309Z,99670.61
2019-05-09T01:10:20.281Z,99665.14
2019-05-09T01:15:23.960Z,99664.20
2019-05-09T01:20:26.034Z,99661.20
2019-05-09T01:25:33.767Z,99668.20
2019-05-09T01:30:36.896Z,99663.77
2019-05-09T01:35:43.282Z,99671.02
2019-05-09T01:40:44.905Z,99674.59
2019-05-09T01:45:47.222Z,99674.59
2019-05-09T01:50:49.168Z,99672.27
2019-05-09T01:55:57.422Z,99662.81
2019-05-09T02:01:00.327Z,99669.80
2019-05-09T02:06:03.707Z,99670.30
2019-05-09T02:11:05.789Z,99670.67
2019-05-09T02:16:25.677Z,99672.03
2019-05-09T02:21:27.637Z,99661.89
2019-05-09T02:26:29.647Z,99665.38
2019-05-09T02:31:35.093Z,99674.34
2019-05-09T02:36:38.485Z,99670.41
2019-05-09T02:41:59.417Z,99663.40
2019-05-09T02:46:58.879Z,99664.25
2019-05-09T02:52:00.922Z,99657.80
2019-05-09T02:57:03.126Z,99658.77
2019-05-09T03:02:15.816Z,99655.50
2019-05-09T03:07:19.784Z,99665.96
2019-05-09T03:12:30.803Z,99665.96
2019-05-09T03:17:28.615Z,99666.13
2019-05-09T03:22:32.050Z,99663.48
2019-05-09T03:27:39.090Z,99665.13
2019-05-09T03:32:43.931Z,99663.98
2019-05-09T03:37:48.132Z,99663.98
2019-05-09T03:42:50.075Z,99660.16
2019-05-09T03:47:54.853Z,99654.17
2019-05-09T03:53:02.074Z,99655.67
2019-05-09T03:58:08.585Z,99647.54
2019-05-09T04:03:10.607Z,99653.66
2019-05-09T04:08:22.767Z,99650.83
2019-05-09T04:13:40.564Z,99652.16
2019-05-09T04:18:44.094Z,99646.18
2019-05-09T04:23:48.059Z,99646.86
2019-05-09T04:28:52.483Z,99648.51
2019-05-09T04:33:57.854Z,99654.48
2019-05-09T04:38:59.789Z,99653.30
2019-05-09T04:44:05.041Z,99656.61
2019-05-09T04:49:12.362Z,99655.11
2019-05-09T04:54:14.498Z,99658.11
2019-05-09T04:59:17.874Z,99660.03
2019-05-09T05:04:24.728Z,99668.35
2019-05-09T05:09:27.748Z,99663.73
2019-05-09T05:14:30.316Z,99664.80
2019-05-09T05:19:38.066Z,99672.72
2019-05-09T05:24:55.884Z,99663.54
2019-05-09T05:29:58.439Z,99662.83
2019-05-09T05:35:13.661Z,99662.06
2019-05-09T05:40:17.684Z,99668.68
2019-05-09T05:45:19.756Z,99671.23
2019-05-09T05:50:21.738Z,99677.06
2019-05-09T05:55:24.657Z,99679.57
2019-05-09T06:00:29.580Z,99682.92
2019-05-09T06:05:33.674Z,99691.26
2019-05-09T06:10:40.938Z,99689.30
2019-05-09T06:15:44.428Z,99691.58
2019-05-09T06:20:48.692Z,99690.28
2019-05-09T06:25:50.844Z,99691.62
2019-05-09T06:30:52.789Z,99693.62
2019-05-09T06:35:58.788Z,99703.45
2019-05-09T06:41:04.652Z,99703.43
2019-05-09T06:46:23.061Z,99711.81
2019-05-09T06:51:24.967Z,99719.33
2019-05-09T06:56:28.320Z,99710.16
2019-05-09T07:01:50.278Z,99717.55
2019-05-09T07:07:00.092Z,99728.04
2019-05-09T07:12:02.261Z,99721.44
2019-05-09T07:17:04.530Z,99731.38
2019-05-09T07:22:20.767Z,99741.70
2019-05-09T07:27:28.441Z,99741.33
2019-05-09T07:32:33.677Z,99739.58
2019-05-09T07:37:37.838Z,99747.20
2019-05-09T07:42:40.823Z,99740.83
2019-05-09T07:47:42.826Z,99739.83
2019-05-09T07:52:47.798Z,99734.69
2019-05-09T07:57:55.314Z,99740.38
2019-05-09T08:02:54.184Z,99732.03
2019-05-09T08:07:58.399Z,99727.90
2019-05-09T08:12:59.934Z,99729.17
2019-05-09T08:18:02.665Z,99737.13
2019-05-09T08:23:08.729Z,99737.70
2019-05-09T08:28:10.244Z,99743.46
2019-05-09T08:33:13.942Z,99734.55
2019-05-09T08:38:17.826Z,99745.47
2019-05-09T08:43:19.901Z,99746.95
2019-05-09T08:48:28.319Z,99759.84
2019-05-09T08:53:30.797Z,99756.51
2019-05-09T08:58:33.700Z,99763.89
2019-05-09T09:03:37.757Z,99767.28
2019-05-09T09:08:39.814Z,99768.53
2019-05-09T09:13:42.226Z,99779.27
2019-05-09T09:18:44.127Z,99772.07
2019-05-09T09:23:49.671Z,99775.54
2019-05-09T09:28:49.884Z,99784.98
2019-05-09T09:33:54.018Z,99777.63
2019-05-09T09:38:55.923Z,99783.25
2019-05-09T09:43:59.619Z,99775.43
2019-05-09T09:49:04.247Z,99782.75
2019-05-09T09:54:08.771Z,99780.99
2019-05-09T09:59:19.392Z,99783.20
2019-05-09T10:04:24.586Z,99775.98
2019-05-09T10:09:31.074Z,99777.23
2019-05-09T10:14:48.309Z,99783.58
2019-05-09T10:19:52.755Z,99788.82
2019-05-09T10:24:58.873Z,99786.44
2019-05-09T10:30:02.524Z,99795.79
2019-05-09T10:35:04.581Z,99791.05
2019-05-09T10:40:06.601Z,99801.34
2019-05-09T10:45:28.151Z,99803.41
2019-05-09T10:50:33.816Z,99800.95
2019-05-09T10:55:33.957Z,99801.79
2019-05-09T11:00:39.425Z,99810.75
2019-05-09T11:05:42.613Z,99814.91
2019-05-09T11:10:44.452Z,99817.47
2019-05-09T11:15:47.997Z,99836.69
2019-05-09T11:20:51.706Z,99831.11
2019-05-09T11:25:53.884Z,99836.70
2019-05-09T11:30:55.689Z,99838.23
2019-05-09T11:35:58.155Z,99838.77
2019-05-09T11:41:00.271Z,99848.89
2019-05-09T11:46:10.242Z,99852.41
2019-05-09T11:51:11.165Z,99860.38
2019-05-09T11:56:13.218Z,99850.05
2019-05-09T12:01:15.083Z,99860.62
2019-05-09T12:06:19.656Z,99860.72
2019-05-09T12:11:22.140Z,99864.30
2019-05-09T12:16:27.941Z,99857.19
2019-05-09T12:21:30.142Z,99857.23
2019-05-09T12:26:32.122Z,99866.05
2019-05-09T12:31:38.403Z,99862.50
2019-05-09T12:36:41.911Z,99866.23
2019-05-09T12:41:48.421Z,99877.80
2019-05-09T12:46:53.158Z,99886.42
2019-05-09T12:51:54.970Z,99889.36
2019-05-09T12:56:59.173Z,99894.83
2019-05-09T13:02:04.306Z,99901.45
2019-05-09T13:07:08.577Z,99905.03
2019-05-09T13:12:12.759Z,99901.20
2019-05-09T13:17:30.663Z,99915.38
2019-05-09T13:22:32.650Z,99912.59
2019-05-09T13:27:34.583Z,99913.75
2019-05-09T13:32:37.561Z,99910.65
2019-05-09T13:37:40.167Z,99915.03
2019-05-09T13:42:45.098Z,99920.72
2019-05-09T13:47:48.415Z,99925.09
2019-05-09T13:52:54.375Z,99923.96
2019-05-09T13:57:59.289Z,99926.06
2019-05-09T14:02:59.909Z,99929.98
2019-05-09T14:08:03.757Z,99938.10
2019-05-09T14:13:10.716Z,99936.97
2019-05-09T14:18:09.737Z,99950.03
2019-05-09T14:23:11.861Z,99947.67
2019-05-09T14:28:15.083Z,99948.77
2019-05-09T14:33:19.094Z,99949.59
2019-05-09T14:38:21.027Z,99959.19
2019-05-09T14:43:22.937Z,99960.66
2019-05-09T14:48:28.711Z,99963.39
2019-05-09T14:53:31.836Z,99970.66
2019-05-09T14:58:33.737Z,99960.86
2019-05-09T15:03:38.623Z,99961.19
2019-05-09T15:08:39.812Z,99970.24
2019-05-09T15:13:44.275Z,99970.22
2019-05-09T15:18:48.768Z,99968.31
2019-05-09T15:23:52.100Z,99984.44
2019-05-09T15:28:54.029Z,99977.23
2019-05-09T15:33:56.000Z,99991.14
2019-05-09T15:38:59.166Z,100000.78
2019-05-09T15:44:01.283Z,100002.44
2019-05-09T15:49:03.248Z,100004.16
2019-05-09T15:54:05.191Z,100000.46
2019-05-09T15:59:09.493Z,100013.30
2019-05-09T16:04:11.608Z,100005.20
2019-05-09T16:09:13.642Z,100012.57
2019-05-09T16:14:18.403Z,100020.84
2019-05-09T16:19:20.360Z,100028.45
2019-05-09T16:24:22.300Z,100026.45
2019-05-09T16:29:24.276Z,100028.88
2019-05-09T16:34:33.044Z,100023.50
2019-05-09T16:39:37.980Z,100025.85
2019-05-09T16:44:41.889Z,100025.02
2019-05-09T16:49:47.840Z,100027.01
2019-05-09T16:54:58.498Z,100038.30
2019-05-09T17:00:01.973Z,100035.64
2019-05-09T17:05:09.228Z,100046.91
2019-05-09T17:10:11.332Z,100048.96
2019-05-09T17:15:19.391Z,100062.64
2019-05-09T17:20:27.787Z,100059.72
2019-05-09T17:25:29.810Z,100061.03
2019-05-09T17:30:34.865Z,100077.22
2019-05-09T17:35:38.641Z,100080.19
2019-05-09T17:40:40.688Z,100083.80
2019-05-09T17:45:42.868Z,100091.63
2019-05-09T17:50:44.781Z,100089.91
2019-05-09T17:55:47.929Z,100101.53
2019-05-09T18:00:50.031Z,100096.94
2019-05-09T18:05:58.955Z,100111.53
2019-05-09T18:11:00.980Z,100116.16
2019-05-09T18:16:03.964Z,100118.14
2019-05-09T18:21:08.513Z,100126.20
2019-05-09T18:26:10.371Z,100137.04
2019-05-09T18:31:13.714Z,100134.39
2019-05-09T18:36:15.954Z,100133.61
2019-05-09T18:41:22.563Z,100152.95
2019-05-09T18:46:24.712Z,100160.61
2019-05-09T18:51:31.678Z,100162.80
2019-05-09T18:56:33.708Z,100168.66
2019-05-09T19:01:37.226Z,100180.21
2019-05-09T19:06:40.510Z,100183.34
2019-05-09T19:11:42.507Z,100187.70
2019-05-09T19:17:12.772Z,100196.15
2019-05-09T19:22:22.491Z,100189.63
2019-05-09T19:27:23.092Z,100196.08
2019-05-09T19:32:25.122Z,100204.04
2019-05-09T19:37:27.306Z,100210.41
2019-05-09T19:42:29.229Z,100212.08
2019-05-09T19:47:31.204Z,100230.75
2019-05-09T19:52:38.381Z,100228.94
2019-05-09T19:57:36.935Z,100236.27
2019-05-09T20:02:40.444Z,100245.62
2019-05-09T20:07:43.556Z,100248.91
2019-05-09T20:12:52.555Z,100262.46
2019-05-09T20:17:54.849Z,100270.34
2019-05-09T20:22:57.059Z,100275.93
2019-05-09T20:27:59.223Z,100299.94
2019-05-09T20:33:02.939Z,100291.66
2019-05-09T20:38:04.917Z,100300.72
2019-05-09T20:43:08.750Z,100300.28
2019-05-09T20:48:10.690Z,100305.71
2019-05-09T20:53:12.682Z,100306.95
2019-05-09T20:58:14.623Z,100311.73
2019-05-09T21:03:16.822Z,100306.86
2019-05-09T21:08:18.596Z,100308.34
2019-05-09T21:13:26.190Z,100314.41
2019-05-09T21:18:28.169Z,100313.84
2019-05-09T21:23:31.161Z,100319.52
2019-05-09T21:28:35.745Z,100330.66
2019-05-09T21:33:37.993Z,100329.77
2019-05-09T21:38:40.191Z,100329.67
2019-05-09T21:43:42.563Z,100325.52
2019-05-09T21:48:44.906Z,100325.86
2019-05-09T21:53:51.032Z,100327.39
2019-05-09T21:58:55.765Z,100326.20
2019-05-09T22:03:57.989Z,100321.15
2019-05-09T22:09:06.672Z,100333.88
2019-05-09T22:14:09.833Z,100333.59
2019-05-09T22:19:11.805Z,100335.03
2019-05-09T22:24:16.708Z,100333.62
2019-05-09T22:29:21.121Z,100335.44
2019-05-09T22:34:24.185Z,100330.31
2019-05-09T22:39:26.071Z,100330.01
2019-05-09T22:44:28.193Z,100322.50
2019-05-09T22:49:31.306Z,100322.23
2019-05-09T22:54:33.386Z,100331.14
2019-05-09T22:59:35.341Z,100318.13
2019-05-09T23:04:37.302Z,100312.55
2019-05-09T23:09:41.938Z,100314.42
2019-05-09T23:14:44.085Z,100314.05
2019-05-09T23:19:46.009Z,100319.42
2019-05-09T23:24:49.809Z,100318.51
2019-05-09T23:29:51.739Z,100319.95
2019-05-09T23:34:53.847Z,100325.81
2019-05-09T23:39:56.944Z,100331.08
2019-05-09T23:44:58.893Z,100326.36
2019-05-09T23:50:00.600Z,100329.67
2019-05-09T23:55:23.777Z,100336.48
